Palm Beach International Airport
KPBI : now visible

Airfield :











YOU CAN JOIN US ON...

 
LOGIN :

Register | Disclaimer

   EN    FR    IT 

 









Legend :    VFR   Marginal VFR   IFR   Intensive IFR   Very Intensive IFR
Visi :
Ceiling :
>= 8 km
>= 3000ft
5 to 8 km
1000 to 3000 ft
1500m to 5 km
500 to 1000 ft
800 to 1500m
200 to 500 ft
< 800m
< 200 ft
Symbols :   Thunderstorms  Fog  Heavy snow  Heavy precipitations  Wind > 20 kt






- Airport Elevation : 19 ft
- IATA code : PBI


KPBI - Palm Beach International

CURRENT METAR :
  • 231053Z 36004KT 10SM SCT023 BKN080 OVC250 23/22 A2995 RMK AO2 SLP142 CB DSNT SE-SW T02330222 $

EXPIRED METARs :
  • 230953Z 00000KT 10SM FEW030 SCT060 OVC240 24/23 A2994 RMK AO2 SLP139 CB DSNT SE T02440228 $
  • 230853Z 01003KT 10SM FEW025 BKN240 24/23 A2993 RMK AO2 SLP134 CB DSNT SE T02440228 58012 $

TAF KPBI
Valid from the 23 at 09:00 until the 24 at 06:00 UTC


230840Z 2309/2406 VRB04KT P6SM SCT025 SCT050 BKN200
FM231500 07009KT P6SM VCTS SCT025CB BKN050
FM240000 06007KT P6SM VCSH SCT025 BKN050
KZMA FIR / North America



MET'MAP, your aeronautical weather chart ! - Copyright ORBIFLY December 2007 - Disclaimer

ORBIFLY MET'MAP TEAM :

Programming & Development : Alexandra Zaïnal
Concept & original design : Baudouin d'Aumeries
Assistance for programming : Marc-Olivier Méhu
Technical & hardware support : Manuel Goepfert

Contact : metmap@orbifly.com




SOURCES & CREDITS :

   NOAA       Earth
Advisory